Perry, Illinois
Current Conditions -  °F | °C
As of 10:55 AM on Sunday 23 Nov 2014 (Local Time) from KPPQ Reporting Station
Overcast Overcast  
Wind Chill: 53°   Ceiling: 1000
Heat Index: 53°   Visibility: 5mi
Dew Point: 50°   Wind: 12mph
Humidity: 91%   Direction: 140°SE
Pressure: 29.57"   Gusts: NA
Location:  39.78°N, 90.75°W
Report Text: KPPQ 231655Z AUTO 14010KT 5SM OVC010 12/10 A2957 RMK AO2 P0003 T01150101 PWINO
Loading
Personal Weather Stations






























Interactive Weather Map New forecast layout! Learn more

10-Day Weather Forecast

Advertisements
Track Severe Weather on mobile